sensor_id;sensor_type;location;lat;lon;timestamp;P1;durP1;ratioP1;P2;durP2;ratioP2
41261;SDS011;29629;52.532;13.352;2023-05-18T00:01:58;97.70;;;67.35;;
41261;SDS011;29629;52.532;13.352;2023-05-18T00:04:25;101.30;;;67.85;;
41261;SDS011;29629;52.532;13.352;2023-05-18T00:06:53;90.85;;;65.00;;
41261;SDS011;29629;52.532;13.352;2023-05-18T00:09:24;106.03;;;69.32;;
41261;SDS011;29629;52.532;13.352;2023-05-18T00:11:51;92.35;;;65.57;;
41261;SDS011;29629;52.532;13.352;2023-05-18T00:14:18;108.32;;;69.03;;
41261;SDS011;29629;52.532;13.352;2023-05-18T00:16:45;100.90;;;68.03;;
41261;SDS011;29629;52.532;13.352;2023-05-18T00:19:12;97.72;;;66.97;;
41261;SDS011;29629;52.532;13.352;2023-05-18T00:21:40;100.13;;;68.40;;
41261;SDS011;29629;52.532;13.352;2023-05-18T00:24:07;105.88;;;69.18;;
41261;SDS011;29629;52.532;13.352;2023-05-18T00:26:36;101.82;;;68.10;;
41261;SDS011;29629;52.532;13.352;2023-05-18T00:29:03;101.38;;;67.65;;
41261;SDS011;29629;52.532;13.352;2023-05-18T00:31:30;137.63;;;80.38;;
41261;SDS011;29629;52.532;13.352;2023-05-18T00:34:00;104.25;;;67.85;;
41261;SDS011;29629;52.532;13.352;2023-05-18T00:36:28;98.60;;;67.30;;
41261;SDS011;29629;52.532;13.352;2023-05-18T00:38:55;112.78;;;72.13;;
41261;SDS011;29629;52.532;13.352;2023-05-18T00:41:22;94.70;;;65.40;;
41261;SDS011;29629;52.532;13.352;2023-05-18T00:43:51;96.43;;;67.03;;
41261;SDS011;29629;52.532;13.352;2023-05-18T00:46:18;97.07;;;66.85;;
41261;SDS011;29629;52.532;13.352;2023-05-18T00:48:46;99.95;;;66.60;;
41261;SDS011;29629;52.532;13.352;2023-05-18T00:51:17;98.15;;;66.95;;
41261;SDS011;29629;52.532;13.352;2023-05-18T00:53:45;95.78;;;66.35;;
41261;SDS011;29629;52.532;13.352;2023-05-18T00:56:12;98.45;;;67.25;;
41261;SDS011;29629;52.532;13.352;2023-05-18T00:58:41;101.80;;;67.97;;
41261;SDS011;29629;52.532;13.352;2023-05-18T01:01:10;96.32;;;65.93;;
41261;SDS011;29629;52.532;13.352;2023-05-18T01:03:37;100.43;;;67.75;;
41261;SDS011;29629;52.532;13.352;2023-05-18T01:06:07;98.50;;;67.30;;
41261;SDS011;29629;52.532;13.352;2023-05-18T01:08:36;104.57;;;68.45;;
41261;SDS011;29629;52.532;13.352;2023-05-18T01:11:06;100.97;;;67.25;;
41261;SDS011;29629;52.532;13.352;2023-05-18T01:13:46;96.93;;;66.78;;
41261;SDS011;29629;52.532;13.352;2023-05-18T01:16:26;109.05;;;69.15;;
41261;SDS011;29629;52.532;13.352;2023-05-18T01:18:59;118.03;;;73.13;;
41261;SDS011;29629;52.532;13.352;2023-05-18T01:21:49;98.20;;;66.35;;
41261;SDS011;29629;52.532;13.352;2023-05-18T01:24:25;98.18;;;68.00;;
41261;SDS011;29629;52.532;13.352;2023-05-18T01:26:59;98.18;;;66.63;;
41261;SDS011;29629;52.532;13.352;2023-05-18T01:29:27;107.32;;;69.63;;
41261;SDS011;29629;52.532;13.352;2023-05-18T01:31:55;103.82;;;66.82;;
41261;SDS011;29629;52.532;13.352;2023-05-18T01:34:23;100.60;;;67.78;;
41261;SDS011;29629;52.532;13.352;2023-05-18T01:36:50;98.38;;;66.53;;
41261;SDS011;29629;52.532;13.352;2023-05-18T01:39:17;97.82;;;67.30;;
41261;SDS011;29629;52.532;13.352;2023-05-18T01:41:45;98.75;;;66.47;;
41261;SDS011;29629;52.532;13.352;2023-05-18T01:44:18;95.57;;;66.05;;
41261;SDS011;29629;52.532;13.352;2023-05-18T01:46:51;98.75;;;67.25;;
41261;SDS011;29629;52.532;13.352;2023-05-18T01:49:23;105.00;;;69.28;;
41261;SDS011;29629;52.532;13.352;2023-05-18T01:51:56;95.15;;;65.88;;
41261;SDS011;29629;52.532;13.352;2023-05-18T01:54:26;96.93;;;66.82;;
41261;SDS011;29629;52.532;13.352;2023-05-18T01:56:55;95.85;;;66.28;;
41261;SDS011;29629;52.532;13.352;2023-05-18T01:59:25;98.50;;;66.97;;
41261;SDS011;29629;52.532;13.352;2023-05-18T02:01:52;100.82;;;66.18;;
41261;SDS011;29629;52.532;13.352;2023-05-18T02:04:24;95.90;;;66.43;;
41261;SDS011;29629;52.532;13.352;2023-05-18T02:06:51;107.82;;;68.53;;
41261;SDS011;29629;52.532;13.352;2023-05-18T02:09:18;109.45;;;69.85;;
41261;SDS011;29629;52.532;13.352;2023-05-18T02:11:45;114.45;;;71.78;;
41261;SDS011;29629;52.532;13.352;2023-05-18T02:14:13;104.97;;;68.90;;
41261;SDS011;29629;52.532;13.352;2023-05-18T02:16:41;95.75;;;65.72;;
41261;SDS011;29629;52.532;13.352;2023-05-18T02:19:11;101.90;;;67.82;;
41261;SDS011;29629;52.532;13.352;2023-05-18T02:21:39;101.50;;;68.15;;
41261;SDS011;29629;52.532;13.352;2023-05-18T02:24:07;96.90;;;66.38;;
41261;SDS011;29629;52.532;13.352;2023-05-18T02:26:34;102.72;;;66.93;;
41261;SDS011;29629;52.532;13.352;2023-05-18T02:29:02;111.22;;;69.30;;
41261;SDS011;29629;52.532;13.352;2023-05-18T02:31:30;107.93;;;70.35;;
41261;SDS011;29629;52.532;13.352;2023-05-18T02:33:58;94.20;;;65.70;;
41261;SDS011;29629;52.532;13.352;2023-05-18T02:36:25;98.68;;;66.50;;
41261;SDS011;29629;52.532;13.352;2023-05-18T02:39:01;101.88;;;68.35;;
41261;SDS011;29629;52.532;13.352;2023-05-18T02:41:28;90.95;;;64.40;;
41261;SDS011;29629;52.532;13.352;2023-05-18T02:43:55;99.03;;;67.07;;
41261;SDS011;29629;52.532;13.352;2023-05-18T02:46:22;100.82;;;66.85;;
41261;SDS011;29629;52.532;13.352;2023-05-18T02:48:49;98.55;;;67.00;;
41261;SDS011;29629;52.532;13.352;2023-05-18T02:51:17;95.00;;;65.25;;
41261;SDS011;29629;52.532;13.352;2023-05-18T02:53:44;95.70;;;65.35;;
41261;SDS011;29629;52.532;13.352;2023-05-18T02:56:11;98.25;;;66.80;;
41261;SDS011;29629;52.532;13.352;2023-05-18T02:58:38;93.28;;;65.53;;
41261;SDS011;29629;52.532;13.352;2023-05-18T03:01:07;95.95;;;65.85;;
41261;SDS011;29629;52.532;13.352;2023-05-18T03:03:36;96.03;;;66.15;;
41261;SDS011;29629;52.532;13.352;2023-05-18T03:06:03;97.50;;;66.60;;
41261;SDS011;29629;52.532;13.352;2023-05-18T03:08:33;98.38;;;66.45;;
41261;SDS011;29629;52.532;13.352;2023-05-18T03:11:01;101.43;;;66.72;;
41261;SDS011;29629;52.532;13.352;2023-05-18T03:13:28;108.20;;;68.15;;
41261;SDS011;29629;52.532;13.352;2023-05-18T03:15:55;97.60;;;66.38;;
41261;SDS011;29629;52.532;13.352;2023-05-18T03:18:22;101.13;;;67.68;;
41261;SDS011;29629;52.532;13.352;2023-05-18T03:20:49;97.72;;;65.95;;
41261;SDS011;29629;52.532;13.352;2023-05-18T03:23:16;107.32;;;67.00;;
41261;SDS011;29629;52.532;13.352;2023-05-18T03:25:45;96.78;;;66.43;;
41261;SDS011;29629;52.532;13.352;2023-05-18T03:28:17;98.20;;;66.50;;
41261;SDS011;29629;52.532;13.352;2023-05-18T03:30:44;99.10;;;66.93;;
41261;SDS011;29629;52.532;13.352;2023-05-18T03:33:11;106.10;;;66.43;;
41261;SDS011;29629;52.532;13.352;2023-05-18T03:35:38;96.93;;;66.00;;
41261;SDS011;29629;52.532;13.352;2023-05-18T03:38:05;96.18;;;65.75;;
41261;SDS011;29629;52.532;13.352;2023-05-18T03:40:32;96.55;;;66.63;;
41261;SDS011;29629;52.532;13.352;2023-05-18T03:43:01;104.03;;;68.38;;
41261;SDS011;29629;52.532;13.352;2023-05-18T03:45:27;96.47;;;65.70;;
41261;SDS011;29629;52.532;13.352;2023-05-18T03:47:54;103.45;;;66.65;;
41261;SDS011;29629;52.532;13.352;2023-05-18T03:50:21;98.82;;;66.63;;
41261;SDS011;29629;52.532;13.352;2023-05-18T03:52:48;96.05;;;65.38;;
41261;SDS011;29629;52.532;13.352;2023-05-18T03:55:17;96.97;;;66.07;;
41261;SDS011;29629;52.532;13.352;2023-05-18T03:57:45;96.78;;;66.50;;
41261;SDS011;29629;52.532;13.352;2023-05-18T04:00:14;102.50;;;67.57;;
41261;SDS011;29629;52.532;13.352;2023-05-18T04:02:41;99.30;;;66.88;;
41261;SDS011;29629;52.532;13.352;2023-05-18T04:05:08;103.53;;;67.00;;
41261;SDS011;29629;52.532;13.352;2023-05-18T04:07:36;98.55;;;66.15;;
41261;SDS011;29629;52.532;13.352;2023-05-18T04:10:10;102.73;;;66.47;;
41261;SDS011;29629;52.532;13.352;2023-05-18T04:12:38;102.43;;;67.85;;
41261;SDS011;29629;52.532;13.352;2023-05-18T04:15:05;102.00;;;67.88;;
41261;SDS011;29629;52.532;13.352;2023-05-18T04:17:34;95.80;;;65.30;;
41261;SDS011;29629;52.532;13.352;2023-05-18T04:20:03;98.35;;;66.82;;
41261;SDS011;29629;52.532;13.352;2023-05-18T04:22:40;96.55;;;66.72;;
41261;SDS011;29629;52.532;13.352;2023-05-18T04:25:12;102.45;;;67.40;;
41261;SDS011;29629;52.532;13.352;2023-05-18T04:27:40;93.90;;;65.45;;
41261;SDS011;29629;52.532;13.352;2023-05-18T04:30:07;110.22;;;70.10;;
41261;SDS011;29629;52.532;13.352;2023-05-18T04:32:37;99.45;;;66.43;;
41261;SDS011;29629;52.532;13.352;2023-05-18T04:35:06;98.30;;;66.25;;
41261;SDS011;29629;52.532;13.352;2023-05-18T04:37:34;96.35;;;66.15;;
41261;SDS011;29629;52.532;13.352;2023-05-18T04:40:04;103.18;;;68.10;;
41261;SDS011;29629;52.532;13.352;2023-05-18T04:42:32;101.75;;;67.38;;
41261;SDS011;29629;52.532;13.352;2023-05-18T04:45:00;102.60;;;68.28;;
41261;SDS011;29629;52.532;13.352;2023-05-18T04:47:29;95.85;;;66.45;;
41261;SDS011;29629;52.532;13.352;2023-05-18T04:49:58;95.18;;;66.03;;
41261;SDS011;29629;52.532;13.352;2023-05-18T04:52:26;96.80;;;67.07;;
41261;SDS011;29629;52.532;13.352;2023-05-18T04:54:54;91.95;;;65.40;;
41261;SDS011;29629;52.532;13.352;2023-05-18T04:57:21;101.45;;;68.13;;
41261;SDS011;29629;52.532;13.352;2023-05-18T04:59:48;103.18;;;67.72;;
41261;SDS011;29629;52.532;13.352;2023-05-18T05:02:17;94.20;;;66.15;;
41261;SDS011;29629;52.532;13.352;2023-05-18T05:04:44;100.43;;;67.00;;
41261;SDS011;29629;52.532;13.352;2023-05-18T05:07:13;98.72;;;67.80;;
41261;SDS011;29629;52.532;13.352;2023-05-18T05:09:40;102.47;;;67.90;;
41261;SDS011;29629;52.532;13.352;2023-05-18T05:12:07;99.45;;;65.70;;
41261;SDS011;29629;52.532;13.352;2023-05-18T05:14:34;99.82;;;67.65;;
41261;SDS011;29629;52.532;13.352;2023-05-18T05:17:01;102.38;;;68.25;;
41261;SDS011;29629;52.532;13.352;2023-05-18T05:19:28;103.03;;;68.63;;
41261;SDS011;29629;52.532;13.352;2023-05-18T05:21:55;92.97;;;66.68;;
41261;SDS011;29629;52.532;13.352;2023-05-18T05:24:23;98.40;;;67.32;;
41261;SDS011;29629;52.532;13.352;2023-05-18T05:26:50;98.82;;;67.03;;
41261;SDS011;29629;52.532;13.352;2023-05-18T05:29:17;97.68;;;67.78;;
41261;SDS011;29629;52.532;13.352;2023-05-18T05:31:45;98.82;;;67.38;;
41261;SDS011;29629;52.532;13.352;2023-05-18T05:34:12;94.70;;;66.55;;
41261;SDS011;29629;52.532;13.352;2023-05-18T05:36:39;100.22;;;67.88;;
41261;SDS011;29629;52.532;13.352;2023-05-18T05:39:06;103.03;;;69.10;;
41261;SDS011;29629;52.532;13.352;2023-05-18T05:41:35;97.90;;;67.20;;
41261;SDS011;29629;52.532;13.352;2023-05-18T05:44:01;100.10;;;68.03;;
41261;SDS011;29629;52.532;13.352;2023-05-18T05:46:28;104.40;;;67.38;;
41261;SDS011;29629;52.532;13.352;2023-05-18T05:48:55;97.63;;;67.03;;
41261;SDS011;29629;52.532;13.352;2023-05-18T05:51:22;93.35;;;66.15;;
41261;SDS011;29629;52.532;13.352;2023-05-18T05:53:49;96.65;;;67.22;;
41261;SDS011;29629;52.532;13.352;2023-05-18T05:56:16;103.72;;;68.47;;
41261;SDS011;29629;52.532;13.352;2023-05-18T05:58:44;98.22;;;67.55;;
41261;SDS011;29629;52.532;13.352;2023-05-18T06:01:11;100.03;;;68.43;;
41261;SDS011;29629;52.532;13.352;2023-05-18T06:03:38;91.32;;;65.68;;
41261;SDS011;29629;52.532;13.352;2023-05-18T06:06:05;102.15;;;68.22;;
41261;SDS011;29629;52.532;13.352;2023-05-18T06:08:32;98.28;;;67.72;;
41261;SDS011;29629;52.532;13.352;2023-05-18T06:10:59;99.82;;;68.32;;
41261;SDS011;29629;52.532;13.352;2023-05-18T06:13:26;94.28;;;66.40;;
41261;SDS011;29629;52.532;13.352;2023-05-18T06:15:54;99.68;;;68.45;;
41261;SDS011;29629;52.532;13.352;2023-05-18T06:18:21;97.10;;;69.10;;
41261;SDS011;29629;52.532;13.352;2023-05-18T06:20:48;99.32;;;68.88;;
41261;SDS011;29629;52.532;13.352;2023-05-18T06:23:15;98.00;;;68.28;;
41261;SDS011;29629;52.532;13.352;2023-05-18T06:25:46;99.00;;;68.53;;
41261;SDS011;29629;52.532;13.352;2023-05-18T06:28:13;102.13;;;69.07;;
41261;SDS011;29629;52.532;13.352;2023-05-18T06:30:40;92.55;;;66.93;;
41261;SDS011;29629;52.532;13.352;2023-05-18T06:33:08;96.90;;;67.38;;
41261;SDS011;29629;52.532;13.352;2023-05-18T06:35:36;98.85;;;69.07;;
41261;SDS011;29629;52.532;13.352;2023-05-18T06:38:03;97.28;;;68.45;;
41261;SDS011;29629;52.532;13.352;2023-05-18T06:40:30;99.55;;;69.07;;
41261;SDS011;29629;52.532;13.352;2023-05-18T06:42:57;93.05;;;66.90;;
41261;SDS011;29629;52.532;13.352;2023-05-18T06:45:24;99.43;;;68.75;;
41261;SDS011;29629;52.532;13.352;2023-05-18T06:47:51;95.45;;;68.22;;
41261;SDS011;29629;52.532;13.352;2023-05-18T06:50:20;99.78;;;69.07;;
41261;SDS011;29629;52.532;13.352;2023-05-18T06:52:47;99.40;;;69.07;;
41261;SDS011;29629;52.532;13.352;2023-05-18T06:55:14;102.32;;;69.60;;
41261;SDS011;29629;52.532;13.352;2023-05-18T06:57:41;92.88;;;67.35;;
41261;SDS011;29629;52.532;13.352;2023-05-18T07:00:08;104.63;;;70.25;;
41261;SDS011;29629;52.532;13.352;2023-05-18T07:02:36;92.05;;;66.22;;
41261;SDS011;29629;52.532;13.352;2023-05-18T07:05:04;99.40;;;69.75;;
41261;SDS011;29629;52.532;13.352;2023-05-18T07:07:34;96.40;;;68.47;;
41261;SDS011;29629;52.532;13.352;2023-05-18T07:10:01;113.00;;;72.00;;
41261;SDS011;29629;52.532;13.352;2023-05-18T07:12:28;109.45;;;71.35;;
41261;SDS011;29629;52.532;13.352;2023-05-18T07:14:55;110.57;;;71.70;;
41261;SDS011;29629;52.532;13.352;2023-05-18T07:17:22;102.95;;;70.28;;
41261;SDS011;29629;52.532;13.352;2023-05-18T07:19:49;101.82;;;69.82;;
41261;SDS011;29629;52.532;13.352;2023-05-18T07:22:16;103.28;;;70.38;;
41261;SDS011;29629;52.532;13.352;2023-05-18T07:24:45;121.35;;;73.90;;
41261;SDS011;29629;52.532;13.352;2023-05-18T07:27:12;107.00;;;71.85;;
41261;SDS011;29629;52.532;13.352;2023-05-18T07:29:38;106.82;;;71.90;;
41261;SDS011;29629;52.532;13.352;2023-05-18T07:32:06;109.00;;;70.95;;
41261;SDS011;29629;52.532;13.352;2023-05-18T07:34:33;109.65;;;71.65;;
41261;SDS011;29629;52.532;13.352;2023-05-18T07:37:00;105.78;;;71.40;;
41261;SDS011;29629;52.532;13.352;2023-05-18T07:39:27;106.15;;;71.50;;
41261;SDS011;29629;52.532;13.352;2023-05-18T07:41:55;103.57;;;70.45;;
41261;SDS011;29629;52.532;13.352;2023-05-18T07:44:22;102.97;;;71.20;;
41261;SDS011;29629;52.532;13.352;2023-05-18T07:46:49;96.22;;;69.75;;
41261;SDS011;29629;52.532;13.352;2023-05-18T07:49:17;108.30;;;72.32;;
41261;SDS011;29629;52.532;13.352;2023-05-18T07:51:43;104.32;;;72.00;;
41261;SDS011;29629;52.532;13.352;2023-05-18T07:54:10;107.18;;;72.85;;
41261;SDS011;29629;52.532;13.352;2023-05-18T07:56:37;108.15;;;73.35;;
41261;SDS011;29629;52.532;13.352;2023-05-18T07:59:06;110.88;;;73.72;;
41261;SDS011;29629;52.532;13.352;2023-05-18T08:01:34;108.13;;;72.88;;
41261;SDS011;29629;52.532;13.352;2023-05-18T08:04:01;106.55;;;72.30;;
41261;SDS011;29629;52.532;13.352;2023-05-18T08:06:28;105.82;;;71.85;;
41261;SDS011;29629;52.532;13.352;2023-05-18T08:08:55;118.30;;;76.40;;
41261;SDS011;29629;52.532;13.352;2023-05-18T08:11:23;104.10;;;72.57;;
41261;SDS011;29629;52.532;13.352;2023-05-18T08:13:50;99.88;;;71.75;;
41261;SDS011;29629;52.532;13.352;2023-05-18T08:16:19;103.00;;;72.30;;
41261;SDS011;29629;52.532;13.352;2023-05-18T08:18:46;109.60;;;74.30;;
41261;SDS011;29629;52.532;13.352;2023-05-18T08:21:12;104.93;;;72.70;;
41261;SDS011;29629;52.532;13.352;2023-05-18T08:23:39;104.53;;;73.20;;
41261;SDS011;29629;52.532;13.352;2023-05-18T08:26:06;108.32;;;74.97;;
41261;SDS011;29629;52.532;13.352;2023-05-18T08:28:33;110.13;;;74.55;;
41261;SDS011;29629;52.532;13.352;2023-05-18T08:31:00;106.53;;;73.55;;
41261;SDS011;29629;52.532;13.352;2023-05-18T08:33:29;103.88;;;73.30;;
41261;SDS011;29629;52.532;13.352;2023-05-18T08:35:56;105.05;;;73.72;;
41261;SDS011;29629;52.532;13.352;2023-05-18T08:38:23;108.80;;;74.13;;
41261;SDS011;29629;52.532;13.352;2023-05-18T08:40:53;111.97;;;74.75;;
41261;SDS011;29629;52.532;13.352;2023-05-18T08:43:26;98.70;;;71.57;;
41261;SDS011;29629;52.532;13.352;2023-05-18T08:45:58;105.43;;;73.28;;
41261;SDS011;29629;52.532;13.352;2023-05-18T08:48:31;122.95;;;78.10;;
41261;SDS011;29629;52.532;13.352;2023-05-18T08:51:00;102.35;;;72.25;;
41261;SDS011;29629;52.532;13.352;2023-05-18T08:53:28;89.32;;;69.13;;
41261;SDS011;29629;52.532;13.352;2023-05-18T08:55:57;103.03;;;73.15;;
41261;SDS011;29629;52.532;13.352;2023-05-18T08:58:26;97.65;;;72.93;;
41261;SDS011;29629;52.532;13.352;2023-05-18T09:00:59;92.22;;;72.93;;
41261;SDS011;29629;52.532;13.352;2023-05-18T09:03:27;87.68;;;64.05;;
41261;SDS011;29629;52.532;13.352;2023-05-18T09:05:56;67.57;;;55.53;;
41261;SDS011;29629;52.532;13.352;2023-05-18T09:08:25;60.05;;;50.95;;
41261;SDS011;29629;52.532;13.352;2023-05-18T09:10:55;141.10;;;132.95;;
41261;SDS011;29629;52.532;13.352;2023-05-18T09:13:23;349.33;;;333.00;;
41261;SDS011;29629;52.532;13.352;2023-05-18T09:15:51;356.98;;;340.55;;
41261;SDS011;29629;52.532;13.352;2023-05-18T09:18:18;275.38;;;262.45;;
41261;SDS011;29629;52.532;13.352;2023-05-18T09:20:45;140.23;;;132.35;;
41261;SDS011;29629;52.532;13.352;2023-05-18T09:23:14;60.05;;;53.90;;
41261;SDS011;29629;52.532;13.352;2023-05-18T09:25:42;62.25;;;53.05;;
41261;SDS011;29629;52.532;13.352;2023-05-18T09:28:10;72.13;;;57.17;;
41261;SDS011;29629;52.532;13.352;2023-05-18T09:30:39;67.97;;;60.78;;
41261;SDS011;29629;52.532;13.352;2023-05-18T09:33:13;72.72;;;62.38;;
41261;SDS011;29629;52.532;13.352;2023-05-18T09:35:43;70.38;;;61.90;;
41261;SDS011;29629;52.532;13.352;2023-05-18T09:38:10;85.63;;;68.82;;
41261;SDS011;29629;52.532;13.352;2023-05-18T09:40:39;77.45;;;69.05;;
41261;SDS011;29629;52.532;13.352;2023-05-18T09:43:09;85.93;;;72.13;;
41261;SDS011;29629;52.532;13.352;2023-05-18T09:45:38;97.30;;;75.53;;
41261;SDS011;29629;52.532;13.352;2023-05-18T09:48:08;89.88;;;68.38;;
41261;SDS011;29629;52.532;13.352;2023-05-18T09:50:35;56.53;;;45.85;;
41261;SDS011;29629;52.532;13.352;2023-05-18T09:53:03;87.80;;;81.75;;
41261;SDS011;29629;52.532;13.352;2023-05-18T09:55:35;154.15;;;146.20;;
41261;SDS011;29629;52.532;13.352;2023-05-18T09:58:06;136.02;;;128.35;;
41261;SDS011;29629;52.532;13.352;2023-05-18T10:00:36;171.38;;;162.80;;
41261;SDS011;29629;52.532;13.352;2023-05-18T10:03:11;117.15;;;110.22;;
41261;SDS011;29629;52.532;13.352;2023-05-18T10:05:42;77.05;;;71.50;;
41261;SDS011;29629;52.532;13.352;2023-05-18T10:08:11;57.03;;;50.25;;
41261;SDS011;29629;52.532;13.352;2023-05-18T10:10:38;61.00;;;52.50;;
41261;SDS011;29629;52.532;13.352;2023-05-18T10:13:10;64.82;;;53.75;;
41261;SDS011;29629;52.532;13.352;2023-05-18T10:15:45;75.47;;;57.90;;
41261;SDS011;29629;52.532;13.352;2023-05-18T10:18:14;78.00;;;56.03;;
41261;SDS011;29629;52.532;13.352;2023-05-18T10:20:46;77.45;;;57.88;;
41261;SDS011;29629;52.532;13.352;2023-05-18T10:23:14;81.43;;;57.15;;
41261;SDS011;29629;52.532;13.352;2023-05-18T10:25:43;72.30;;;53.13;;
41261;SDS011;29629;52.532;13.352;2023-05-18T10:28:15;76.47;;;55.17;;
41261;SDS011;29629;52.532;13.352;2023-05-18T10:30:48;75.55;;;57.63;;
41261;SDS011;29629;52.532;13.352;2023-05-18T10:33:16;71.53;;;59.63;;
41261;SDS011;29629;52.532;13.352;2023-05-18T10:35:44;85.57;;;65.47;;
41261;SDS011;29629;52.532;13.352;2023-05-18T10:38:15;82.65;;;65.47;;
41261;SDS011;29629;52.532;13.352;2023-05-18T10:40:45;73.57;;;64.07;;
41261;SDS011;29629;52.532;13.352;2023-05-18T10:43:16;88.32;;;70.20;;
41261;SDS011;29629;52.532;13.352;2023-05-18T10:45:45;84.70;;;67.07;;
41261;SDS011;29629;52.532;13.352;2023-05-18T10:48:15;50.00;;;42.75;;
41261;SDS011;29629;52.532;13.352;2023-05-18T10:50:44;232.15;;;221.07;;
41261;SDS011;29629;52.532;13.352;2023-05-18T10:53:13;296.02;;;284.02;;
41261;SDS011;29629;52.532;13.352;2023-05-18T10:55:44;302.45;;;288.67;;
41261;SDS011;29629;52.532;13.352;2023-05-18T10:58:11;338.20;;;321.63;;
41261;SDS011;29629;52.532;13.352;2023-05-18T11:00:43;434.85;;;413.83;;
41261;SDS011;29629;52.532;13.352;2023-05-18T11:03:13;581.95;;;555.25;;
41261;SDS011;29629;52.532;13.352;2023-05-18T11:05:42;462.38;;;439.63;;
41261;SDS011;29629;52.532;13.352;2023-05-18T11:08:13;422.13;;;401.35;;
41261;SDS011;29629;52.532;13.352;2023-05-18T11:10:57;527.47;;;502.92;;
41261;SDS011;29629;52.532;13.352;2023-05-18T11:13:27;584.85;;;558.17;;
41261;SDS011;29629;52.532;13.352;2023-05-18T11:16:06;581.92;;;555.08;;
41261;SDS011;29629;52.532;13.352;2023-05-18T11:18:35;566.88;;;540.40;;
41261;SDS011;29629;52.532;13.352;2023-05-18T11:21:19;581.70;;;554.17;;
41261;SDS011;29629;52.532;13.352;2023-05-18T11:26:59;491.95;;;468.13;;
41261;SDS011;29629;52.532;13.352;2023-05-18T11:29:32;466.33;;;443.65;;
41261;SDS011;29629;52.532;13.352;2023-05-18T11:32:01;563.95;;;536.33;;
41261;SDS011;29629;52.532;13.352;2023-05-18T11:37:17;458.08;;;434.63;;
41261;SDS011;29629;52.532;13.352;2023-05-18T11:43:16;381.95;;;363.75;;
41261;SDS011;29629;52.532;13.352;2023-05-18T11:45:52;322.65;;;306.88;;
41261;SDS011;29629;52.532;13.352;2023-05-18T11:48:22;353.98;;;337.08;;
41261;SDS011;29629;52.532;13.352;2023-05-18T11:50:51;326.10;;;310.60;;
41261;SDS011;29629;52.532;13.352;2023-05-18T11:53:18;302.48;;;287.88;;
41261;SDS011;29629;52.532;13.352;2023-05-18T11:55:48;339.10;;;321.02;;
41261;SDS011;29629;52.532;13.352;2023-05-18T11:58:17;282.27;;;268.20;;
41261;SDS011;29629;52.532;13.352;2023-05-18T12:00:44;341.80;;;325.83;;
41261;SDS011;29629;52.532;13.352;2023-05-18T12:03:12;414.95;;;394.65;;
41261;SDS011;29629;52.532;13.352;2023-05-18T12:05:41;450.77;;;429.23;;
41261;SDS011;29629;52.532;13.352;2023-05-18T12:08:14;480.67;;;457.27;;
41261;SDS011;29629;52.532;13.352;2023-05-18T12:10:43;503.17;;;478.35;;
41261;SDS011;29629;52.532;13.352;2023-05-18T12:13:10;451.27;;;428.98;;
41261;SDS011;29629;52.532;13.352;2023-05-18T12:15:38;440.15;;;420.02;;
41261;SDS011;29629;52.532;13.352;2023-05-18T12:18:06;437.85;;;416.80;;
41261;SDS011;29629;52.532;13.352;2023-05-18T12:20:33;381.30;;;363.33;;
41261;SDS011;29629;52.532;13.352;2023-05-18T12:23:01;310.98;;;296.27;;
41261;SDS011;29629;52.532;13.352;2023-05-18T12:25:28;266.13;;;253.43;;
41261;SDS011;29629;52.532;13.352;2023-05-18T12:27:55;303.17;;;289.13;;
41261;SDS011;29629;52.532;13.352;2023-05-18T12:30:23;322.50;;;307.05;;
41261;SDS011;29629;52.532;13.352;2023-05-18T12:32:58;323.67;;;309.10;;
41261;SDS011;29629;52.532;13.352;2023-05-18T12:35:26;371.25;;;353.48;;
41261;SDS011;29629;52.532;13.352;2023-05-18T12:37:56;348.88;;;332.23;;
41261;SDS011;29629;52.532;13.352;2023-05-18T12:40:25;291.00;;;277.65;;
41261;SDS011;29629;52.532;13.352;2023-05-18T12:43:01;222.82;;;211.73;;
41261;SDS011;29629;52.532;13.352;2023-05-18T12:45:29;144.63;;;135.43;;
41261;SDS011;29629;52.532;13.352;2023-05-18T12:48:02;126.00;;;117.15;;
41261;SDS011;29629;52.532;13.352;2023-05-18T12:50:29;146.23;;;138.38;;
41261;SDS011;29629;52.532;13.352;2023-05-18T12:52:56;207.63;;;196.50;;
41261;SDS011;29629;52.532;13.352;2023-05-18T12:55:25;200.10;;;190.13;;
41261;SDS011;29629;52.532;13.352;2023-05-18T12:58:01;112.93;;;104.78;;
41261;SDS011;29629;52.532;13.352;2023-05-18T13:00:32;88.85;;;81.45;;
41261;SDS011;29629;52.532;13.352;2023-05-18T13:03:05;65.72;;;58.65;;
41261;SDS011;29629;52.532;13.352;2023-05-18T13:05:33;67.70;;;60.97;;
41261;SDS011;29629;52.532;13.352;2023-05-18T13:08:00;88.40;;;74.90;;
41261;SDS011;29629;52.532;13.352;2023-05-18T13:10:29;93.70;;;81.05;;
41261;SDS011;29629;52.532;13.352;2023-05-18T13:12:57;87.10;;;77.85;;
41261;SDS011;29629;52.532;13.352;2023-05-18T13:15:31;175.35;;;161.65;;
41261;SDS011;29629;52.532;13.352;2023-05-18T13:18:00;95.40;;;82.38;;
41261;SDS011;29629;52.532;13.352;2023-05-18T13:20:28;108.10;;;90.03;;
41261;SDS011;29629;52.532;13.352;2023-05-18T13:22:57;100.55;;;83.03;;
41261;SDS011;29629;52.532;13.352;2023-05-18T13:25:25;112.57;;;90.43;;
41261;SDS011;29629;52.532;13.352;2023-05-18T13:27:53;117.55;;;89.43;;
41261;SDS011;29629;52.532;13.352;2023-05-18T13:30:21;100.95;;;85.03;;
41261;SDS011;29629;52.532;13.352;2023-05-18T13:32:48;147.88;;;93.60;;
41261;SDS011;29629;52.532;13.352;2023-05-18T13:35:16;105.20;;;82.03;;
41261;SDS011;29629;52.532;13.352;2023-05-18T13:37:44;104.18;;;81.28;;
41261;SDS011;29629;52.532;13.352;2023-05-18T13:40:12;102.00;;;80.18;;
41261;SDS011;29629;52.532;13.352;2023-05-18T13:42:39;106.93;;;81.18;;
41261;SDS011;29629;52.532;13.352;2023-05-18T13:45:09;110.65;;;81.70;;
41261;SDS011;29629;52.532;13.352;2023-05-18T13:47:36;106.85;;;80.25;;
41261;SDS011;29629;52.532;13.352;2023-05-18T13:50:04;109.50;;;80.68;;
41261;SDS011;29629;52.532;13.352;2023-05-18T13:52:31;110.68;;;81.15;;
41261;SDS011;29629;52.532;13.352;2023-05-18T13:54:58;108.30;;;80.47;;
41261;SDS011;29629;52.532;13.352;2023-05-18T13:57:25;109.03;;;81.03;;
41261;SDS011;29629;52.532;13.352;2023-05-18T13:59:54;107.53;;;79.88;;
41261;SDS011;29629;52.532;13.352;2023-05-18T14:02:24;108.43;;;79.75;;
41261;SDS011;29629;52.532;13.352;2023-05-18T14:04:51;107.22;;;79.45;;
41261;SDS011;29629;52.532;13.352;2023-05-18T14:07:18;105.97;;;78.88;;
41261;SDS011;29629;52.532;13.352;2023-05-18T14:09:45;106.50;;;77.88;;
41261;SDS011;29629;52.532;13.352;2023-05-18T14:12:12;102.75;;;77.88;;
41261;SDS011;29629;52.532;13.352;2023-05-18T14:14:39;101.45;;;77.90;;
41261;SDS011;29629;52.532;13.352;2023-05-18T14:17:07;106.43;;;78.78;;
41261;SDS011;29629;52.532;13.352;2023-05-18T14:19:35;102.53;;;76.70;;